Terminal Aerodrome Forecast
Issued by NWS Sterling, VA

Current Version | Previous Version | Graphics & Text | Print | Product List | Glossary On
Versions: 1 2 3 4 5 6 7 8 9 10 11 12 13 14 15 16 17 18 19 20 21 22 23 24 25 26
378
FTUS41 KLWX 010529
TAFDCA
TAF
KDCA 010529Z 0106/0206 15007KT P6SM -RA OVC035
     FM010900 14006KT 6SM -RA OVC015
     FM011200 15006KT 5SM -RA BR OVC008
     FM011600 16007KT 6SM BR OVC008
     FM012100 16006KT P6SM -SHRA OVC015
     FM020300 11004KT 5SM -SHRA BR BKN008=

USA.gov is the U.S. government's official web portal to all federal, state and local government web resources and services.